Tisul, Russia
Current Conditions -  °F | °C
As of 6:00 AM on Tuesday 21 Oct 2014 (Local Time) from UNEE Reporting Station
Clear Clear  
Wind Chill: 40°   Ceiling: Unl
Heat Index: 46°   Visibility: 6mi
Dew Point: 46°   Wind: 13mph
Humidity: 100%   Direction: 150°SSE
Pressure: 29.38"   Gusts: NA
Location:  55.76°N, 88.31°E
Report Text: UNEE 202300Z 15006MPS CAVOK 08/08 Q0995 NOSIG RMK QFE72423290055
Loading
Personal Weather Stations






























Interactive Weather Map New forecast layout! Learn more

10-Day Weather Forecast

Advertisements
Track Severe Weather on mobile